sensor_id;sensor_type;location;lat;lon;timestamp;temperature;humidity
16666;DHT22;8446;50.998;6.250;2022-08-04T00:01:20;20.70;99.90
16666;DHT22;8446;50.998;6.250;2022-08-04T00:04:12;20.70;99.90
16666;DHT22;8446;50.998;6.250;2022-08-04T00:06:47;20.70;99.90
16666;DHT22;8446;50.998;6.250;2022-08-04T00:09:24;20.70;99.90
16666;DHT22;8446;50.998;6.250;2022-08-04T00:11:53;20.70;99.90
16666;DHT22;8446;50.998;6.250;2022-08-04T00:14:24;20.80;99.90
16666;DHT22;8446;50.998;6.250;2022-08-04T00:16:52;20.90;99.90
16666;DHT22;8446;50.998;6.250;2022-08-04T00:19:27;21.00;99.90
16666;DHT22;8446;50.998;6.250;2022-08-04T00:21:59;21.00;99.90
16666;DHT22;8446;50.998;6.250;2022-08-04T00:24:29;21.10;99.90
16666;DHT22;8446;50.998;6.250;2022-08-04T00:26:56;21.50;99.90
16666;DHT22;8446;50.998;6.250;2022-08-04T00:29:24;21.20;99.90
16666;DHT22;8446;50.998;6.250;2022-08-04T00:31:55;20.80;99.90
16666;DHT22;8446;50.998;6.250;2022-08-04T00:34:25;20.80;99.90
16666;DHT22;8446;50.998;6.250;2022-08-04T00:36:53;20.30;99.90
16666;DHT22;8446;50.998;6.250;2022-08-04T00:39:20;19.90;99.90
16666;DHT22;8446;50.998;6.250;2022-08-04T00:41:56;19.20;99.90
16666;DHT22;8446;50.998;6.250;2022-08-04T00:44:33;19.00;99.90
16666;DHT22;8446;50.998;6.250;2022-08-04T00:47:18;19.20;99.90
16666;DHT22;8446;50.998;6.250;2022-08-04T00:50:01;19.30;99.90
16666;DHT22;8446;50.998;6.250;2022-08-04T00:52:43;19.50;99.90
16666;DHT22;8446;50.998;6.250;2022-08-04T00:55:28;19.40;99.90
16666;DHT22;8446;50.998;6.250;2022-08-04T00:58:10;19.50;99.90
16666;DHT22;8446;50.998;6.250;2022-08-04T01:00:53;19.50;99.90
16666;DHT22;8446;50.998;6.250;2022-08-04T01:03:32;19.50;99.90
16666;DHT22;8446;50.998;6.250;2022-08-04T01:06:11;19.60;99.90
16666;DHT22;8446;50.998;6.250;2022-08-04T01:08:57;19.70;99.90
16666;DHT22;8446;50.998;6.250;2022-08-04T01:11:47;19.80;99.90
16666;DHT22;8446;50.998;6.250;2022-08-04T01:14:26;19.70;99.90
16666;DHT22;8446;50.998;6.250;2022-08-04T01:16:59;19.80;99.90
16666;DHT22;8446;50.998;6.250;2022-08-04T01:19:53;19.30;99.90
16666;DHT22;8446;50.998;6.250;2022-08-04T01:28:30;18.40;99.90
16666;DHT22;8446;50.998;6.250;2022-08-04T01:31:12;18.30;99.90
16666;DHT22;8446;50.998;6.250;2022-08-04T01:33:46;18.50;99.90
16666;DHT22;8446;50.998;6.250;2022-08-04T01:36:14;18.70;99.90
16666;DHT22;8446;50.998;6.250;2022-08-04T01:38:41;18.70;99.90
16666;DHT22;8446;50.998;6.250;2022-08-04T01:41:13;18.80;99.90
16666;DHT22;8446;50.998;6.250;2022-08-04T01:43:43;18.80;99.90
16666;DHT22;8446;50.998;6.250;2022-08-04T01:46:12;18.80;99.90
16666;DHT22;8446;50.998;6.250;2022-08-04T01:48:44;18.90;99.90
16666;DHT22;8446;50.998;6.250;2022-08-04T01:51:11;18.90;99.90
16666;DHT22;8446;50.998;6.250;2022-08-04T01:53:39;18.80;99.90
16666;DHT22;8446;50.998;6.250;2022-08-04T01:56:08;18.60;99.90
16666;DHT22;8446;50.998;6.250;2022-08-04T01:58:36;18.70;99.90
16666;DHT22;8446;50.998;6.250;2022-08-04T02:01:05;18.70;99.90
16666;DHT22;8446;50.998;6.250;2022-08-04T02:03:34;18.70;99.90
16666;DHT22;8446;50.998;6.250;2022-08-04T02:06:14;18.50;99.90
16666;DHT22;8446;50.998;6.250;2022-08-04T02:08:50;18.50;99.90
16666;DHT22;8446;50.998;6.250;2022-08-04T02:11:20;18.60;99.90
16666;DHT22;8446;50.998;6.250;2022-08-04T02:13:57;18.40;99.90
16666;DHT22;8446;50.998;6.250;2022-08-04T02:16:32;18.20;99.90
16666;DHT22;8446;50.998;6.250;2022-08-04T02:19:11;17.60;99.90
16666;DHT22;8446;50.998;6.250;2022-08-04T02:21:43;17.10;99.90
16666;DHT22;8446;50.998;6.250;2022-08-04T02:24:14;17.40;99.90
16666;DHT22;8446;50.998;6.250;2022-08-04T02:26:42;17.40;99.90
16666;DHT22;8446;50.998;6.250;2022-08-04T02:29:16;17.60;99.90
16666;DHT22;8446;50.998;6.250;2022-08-04T02:31:47;17.80;99.90
16666;DHT22;8446;50.998;6.250;2022-08-04T02:34:20;17.70;99.90
16666;DHT22;8446;50.998;6.250;2022-08-04T02:36:51;17.40;99.90
16666;DHT22;8446;50.998;6.250;2022-08-04T02:39:19;17.50;99.90
16666;DHT22;8446;50.998;6.250;2022-08-04T02:41:47;17.50;99.90
16666;DHT22;8446;50.998;6.250;2022-08-04T02:44:20;17.40;99.90
16666;DHT22;8446;50.998;6.250;2022-08-04T02:46:49;17.20;99.90
16666;DHT22;8446;50.998;6.250;2022-08-04T02:49:18;17.10;99.90
16666;DHT22;8446;50.998;6.250;2022-08-04T02:51:49;17.30;99.90
16666;DHT22;8446;50.998;6.250;2022-08-04T02:54:19;17.40;99.90
16666;DHT22;8446;50.998;6.250;2022-08-04T02:56:50;17.40;99.90
16666;DHT22;8446;50.998;6.250;2022-08-04T02:59:22;17.30;99.90
16666;DHT22;8446;50.998;6.250;2022-08-04T03:01:54;17.40;99.90
16666;DHT22;8446;50.998;6.250;2022-08-04T03:04:30;17.40;99.90
16666;DHT22;8446;50.998;6.250;2022-08-04T03:07:28;17.40;99.90
16666;DHT22;8446;50.998;6.250;2022-08-04T03:19:31;17.60;99.90
16666;DHT22;8446;50.998;6.250;2022-08-04T03:22:26;17.70;99.90
16666;DHT22;8446;50.998;6.250;2022-08-04T03:25:22;17.80;99.90
16666;DHT22;8446;50.998;6.250;2022-08-04T03:28:22;17.70;99.90
16666;DHT22;8446;50.998;6.250;2022-08-04T03:31:09;17.60;99.90
16666;DHT22;8446;50.998;6.250;2022-08-04T03:33:48;17.50;99.90
16666;DHT22;8446;50.998;6.250;2022-08-04T03:37:10;17.40;99.90
16666;DHT22;8446;50.998;6.250;2022-08-04T03:40:12;17.20;99.90
16666;DHT22;8446;50.998;6.250;2022-08-04T03:46:19;17.00;99.90
16666;DHT22;8446;50.998;6.250;2022-08-04T03:52:01;17.10;99.90
16666;DHT22;8446;50.998;6.250;2022-08-04T03:58:04;17.10;99.90
16666;DHT22;8446;50.998;6.250;2022-08-04T04:00:40;16.70;99.90
16666;DHT22;8446;50.998;6.250;2022-08-04T04:03:27;16.60;99.90
16666;DHT22;8446;50.998;6.250;2022-08-04T04:09:18;17.10;99.90
16666;DHT22;8446;50.998;6.250;2022-08-04T04:12:11;17.10;99.90
16666;DHT22;8446;50.998;6.250;2022-08-04T04:14:50;17.20;99.90
16666;DHT22;8446;50.998;6.250;2022-08-04T04:17:36;17.20;99.90
16666;DHT22;8446;50.998;6.250;2022-08-04T04:20:24;17.00;99.90
16666;DHT22;8446;50.998;6.250;2022-08-04T04:23:14;17.00;99.90
16666;DHT22;8446;50.998;6.250;2022-08-04T04:25:54;16.70;99.90
16666;DHT22;8446;50.998;6.250;2022-08-04T04:28:52;16.70;99.90
16666;DHT22;8446;50.998;6.250;2022-08-04T04:31:37;16.70;99.90
16666;DHT22;8446;50.998;6.250;2022-08-04T04:34:20;16.80;99.90
16666;DHT22;8446;50.998;6.250;2022-08-04T04:37:02;16.80;99.90
16666;DHT22;8446;50.998;6.250;2022-08-04T04:39:42;16.90;99.90
16666;DHT22;8446;50.998;6.250;2022-08-04T04:42:27;16.90;99.90
16666;DHT22;8446;50.998;6.250;2022-08-04T04:45:09;17.00;99.90
16666;DHT22;8446;50.998;6.250;2022-08-04T04:47:48;17.30;99.90
16666;DHT22;8446;50.998;6.250;2022-08-04T04:50:25;17.20;99.90
16666;DHT22;8446;50.998;6.250;2022-08-04T04:53:02;17.30;99.90
16666;DHT22;8446;50.998;6.250;2022-08-04T04:55:34;17.30;99.90
16666;DHT22;8446;50.998;6.250;2022-08-04T04:58:07;17.10;99.90
16666;DHT22;8446;50.998;6.250;2022-08-04T05:00:50;17.10;99.90
16666;DHT22;8446;50.998;6.250;2022-08-04T05:03:32;17.20;99.90
16666;DHT22;8446;50.998;6.250;2022-08-04T05:06:26;17.20;99.90
16666;DHT22;8446;50.998;6.250;2022-08-04T05:09:31;17.40;99.90
16666;DHT22;8446;50.998;6.250;2022-08-04T05:12:19;17.60;99.90
16666;DHT22;8446;50.998;6.250;2022-08-04T05:14:51;17.80;99.90
16666;DHT22;8446;50.998;6.250;2022-08-04T05:17:24;17.70;99.90
16666;DHT22;8446;50.998;6.250;2022-08-04T05:19:57;18.00;99.90
16666;DHT22;8446;50.998;6.250;2022-08-04T05:22:30;18.10;99.90
16666;DHT22;8446;50.998;6.250;2022-08-04T05:25:04;18.10;99.90
16666;DHT22;8446;50.998;6.250;2022-08-04T05:27:36;18.30;99.90
16666;DHT22;8446;50.998;6.250;2022-08-04T05:30:05;18.30;99.90
16666;DHT22;8446;50.998;6.250;2022-08-04T05:32:42;18.40;99.90
16666;DHT22;8446;50.998;6.250;2022-08-04T05:35:15;18.50;99.90
16666;DHT22;8446;50.998;6.250;2022-08-04T05:37:43;18.60;99.90
16666;DHT22;8446;50.998;6.250;2022-08-04T05:40:11;18.70;99.90
16666;DHT22;8446;50.998;6.250;2022-08-04T05:42:39;19.00;99.90
16666;DHT22;8446;50.998;6.250;2022-08-04T05:45:07;19.10;99.90
16666;DHT22;8446;50.998;6.250;2022-08-04T05:47:36;19.30;99.90
16666;DHT22;8446;50.998;6.250;2022-08-04T05:50:06;19.40;99.90
16666;DHT22;8446;50.998;6.250;2022-08-04T05:52:35;19.60;99.90
16666;DHT22;8446;50.998;6.250;2022-08-04T05:55:03;20.00;99.90
16666;DHT22;8446;50.998;6.250;2022-08-04T05:57:32;20.30;99.90
16666;DHT22;8446;50.998;6.250;2022-08-04T06:00:03;20.50;99.90
16666;DHT22;8446;50.998;6.250;2022-08-04T06:02:31;20.90;99.90
16666;DHT22;8446;50.998;6.250;2022-08-04T06:05:01;20.90;99.90
16666;DHT22;8446;50.998;6.250;2022-08-04T06:07:30;21.20;99.90
16666;DHT22;8446;50.998;6.250;2022-08-04T06:09:57;21.20;99.90
16666;DHT22;8446;50.998;6.250;2022-08-04T06:12:29;21.30;99.90
16666;DHT22;8446;50.998;6.250;2022-08-04T06:14:59;21.60;99.90
16666;DHT22;8446;50.998;6.250;2022-08-04T06:17:30;21.60;99.90
16666;DHT22;8446;50.998;6.250;2022-08-04T06:19:58;21.80;99.90
16666;DHT22;8446;50.998;6.250;2022-08-04T06:22:29;21.80;99.90
16666;DHT22;8446;50.998;6.250;2022-08-04T06:25:00;22.00;99.90
16666;DHT22;8446;50.998;6.250;2022-08-04T06:27:28;22.20;99.90
16666;DHT22;8446;50.998;6.250;2022-08-04T06:29:57;22.40;99.90
16666;DHT22;8446;50.998;6.250;2022-08-04T06:32:25;22.50;99.90
16666;DHT22;8446;50.998;6.250;2022-08-04T06:35:03;22.80;99.90
16666;DHT22;8446;50.998;6.250;2022-08-04T06:37:33;23.00;99.90
16666;DHT22;8446;50.998;6.250;2022-08-04T06:40:03;23.20;99.90
16666;DHT22;8446;50.998;6.250;2022-08-04T06:42:30;23.50;99.90
16666;DHT22;8446;50.998;6.250;2022-08-04T06:44:57;23.60;99.90
16666;DHT22;8446;50.998;6.250;2022-08-04T06:47:25;23.80;99.90
16666;DHT22;8446;50.998;6.250;2022-08-04T06:49:54;24.00;99.90
16666;DHT22;8446;50.998;6.250;2022-08-04T06:52:21;24.10;99.90
16666;DHT22;8446;50.998;6.250;2022-08-04T06:54:51;24.10;99.90
16666;DHT22;8446;50.998;6.250;2022-08-04T06:57:22;24.40;99.90
16666;DHT22;8446;50.998;6.250;2022-08-04T06:59:54;24.50;99.90
16666;DHT22;8446;50.998;6.250;2022-08-04T07:02:26;24.60;99.90
16666;DHT22;8446;50.998;6.250;2022-08-04T07:04:54;24.70;99.90
16666;DHT22;8446;50.998;6.250;2022-08-04T07:07:23;24.80;99.90
16666;DHT22;8446;50.998;6.250;2022-08-04T07:09:52;25.00;99.90
16666;DHT22;8446;50.998;6.250;2022-08-04T07:12:19;25.20;99.90
16666;DHT22;8446;50.998;6.250;2022-08-04T07:14:47;25.40;99.90
16666;DHT22;8446;50.998;6.250;2022-08-04T07:17:14;25.40;99.90
16666;DHT22;8446;50.998;6.250;2022-08-04T07:19:42;25.60;99.90
16666;DHT22;8446;50.998;6.250;2022-08-04T07:22:10;25.90;99.90
16666;DHT22;8446;50.998;6.250;2022-08-04T07:24:37;26.20;99.90
16666;DHT22;8446;50.998;6.250;2022-08-04T07:27:06;26.40;99.90
16666;DHT22;8446;50.998;6.250;2022-08-04T07:29:34;26.70;99.90
16666;DHT22;8446;50.998;6.250;2022-08-04T07:32:02;26.80;99.90
16666;DHT22;8446;50.998;6.250;2022-08-04T07:34:30;27.00;99.90
16666;DHT22;8446;50.998;6.250;2022-08-04T07:36:59;27.20;99.90
16666;DHT22;8446;50.998;6.250;2022-08-04T07:39:27;27.50;99.90
16666;DHT22;8446;50.998;6.250;2022-08-04T07:41:57;27.60;99.90
16666;DHT22;8446;50.998;6.250;2022-08-04T07:44:26;27.80;99.90
16666;DHT22;8446;50.998;6.250;2022-08-04T07:46:53;27.70;99.90
16666;DHT22;8446;50.998;6.250;2022-08-04T07:49:21;27.70;99.90
16666;DHT22;8446;50.998;6.250;2022-08-04T07:51:49;28.00;99.90
16666;DHT22;8446;50.998;6.250;2022-08-04T07:54:16;28.10;99.90
16666;DHT22;8446;50.998;6.250;2022-08-04T07:56:44;27.70;99.90
16666;DHT22;8446;50.998;6.250;2022-08-04T07:59:13;27.50;99.90
16666;DHT22;8446;50.998;6.250;2022-08-04T08:01:42;27.60;99.90
16666;DHT22;8446;50.998;6.250;2022-08-04T08:04:10;27.90;99.90
16666;DHT22;8446;50.998;6.250;2022-08-04T08:06:38;27.80;99.90
16666;DHT22;8446;50.998;6.250;2022-08-04T08:09:07;27.80;99.90
16666;DHT22;8446;50.998;6.250;2022-08-04T08:11:34;27.80;99.90
16666;DHT22;8446;50.998;6.250;2022-08-04T08:14:01;28.00;99.90
16666;DHT22;8446;50.998;6.250;2022-08-04T08:16:28;28.20;99.90
16666;DHT22;8446;50.998;6.250;2022-08-04T08:19:00;28.30;99.90
16666;DHT22;8446;50.998;6.250;2022-08-04T08:21:27;28.10;99.90
16666;DHT22;8446;50.998;6.250;2022-08-04T08:23:54;27.90;99.90
16666;DHT22;8446;50.998;6.250;2022-08-04T08:26:21;27.90;99.90
16666;DHT22;8446;50.998;6.250;2022-08-04T08:28:48;28.10;99.90
16666;DHT22;8446;50.998;6.250;2022-08-04T08:33:52;28.30;99.90
16666;DHT22;8446;50.998;6.250;2022-08-04T08:36:24;28.60;99.90
16666;DHT22;8446;50.998;6.250;2022-08-04T08:38:59;28.70;99.90
16666;DHT22;8446;50.998;6.250;2022-08-04T08:42:03;28.50;99.90
16666;DHT22;8446;50.998;6.250;2022-08-04T08:44:55;29.00;99.90
16666;DHT22;8446;50.998;6.250;2022-08-04T08:47:38;28.80;99.90
16666;DHT22;8446;50.998;6.250;2022-08-04T08:50:45;29.00;99.90
16666;DHT22;8446;50.998;6.250;2022-08-04T08:53:47;29.10;99.90
16666;DHT22;8446;50.998;6.250;2022-08-04T08:56:25;29.40;99.90
16666;DHT22;8446;50.998;6.250;2022-08-04T08:59:07;29.50;99.90
16666;DHT22;8446;50.998;6.250;2022-08-04T09:02:02;29.70;99.90
16666;DHT22;8446;50.998;6.250;2022-08-04T09:04:52;30.10;99.90
16666;DHT22;8446;50.998;6.250;2022-08-04T09:07:43;30.20;99.90
16666;DHT22;8446;50.998;6.250;2022-08-04T09:10:17;30.20;99.90
16666;DHT22;8446;50.998;6.250;2022-08-04T09:12:49;29.80;99.90
16666;DHT22;8446;50.998;6.250;2022-08-04T09:15:23;29.60;99.90
16666;DHT22;8446;50.998;6.250;2022-08-04T09:17:59;29.60;99.90
16666;DHT22;8446;50.998;6.250;2022-08-04T09:20:30;29.70;99.90
16666;DHT22;8446;50.998;6.250;2022-08-04T09:23:08;29.90;99.90
16666;DHT22;8446;50.998;6.250;2022-08-04T09:25:41;30.30;99.90
16666;DHT22;8446;50.998;6.250;2022-08-04T09:28:17;30.10;99.90
16666;DHT22;8446;50.998;6.250;2022-08-04T09:30:51;29.90;99.90
16666;DHT22;8446;50.998;6.250;2022-08-04T09:33:38;29.90;99.90
16666;DHT22;8446;50.998;6.250;2022-08-04T09:36:14;30.20;99.90
16666;DHT22;8446;50.998;6.250;2022-08-04T09:41:35;30.00;99.90
16666;DHT22;8446;50.998;6.250;2022-08-04T09:44:12;30.00;99.90
16666;DHT22;8446;50.998;6.250;2022-08-04T09:46:46;30.00;99.90
16666;DHT22;8446;50.998;6.250;2022-08-04T09:49:22;29.90;99.90
16666;DHT22;8446;50.998;6.250;2022-08-04T09:51:59;29.90;99.90
16666;DHT22;8446;50.998;6.250;2022-08-04T09:54:32;29.80;99.90
16666;DHT22;8446;50.998;6.250;2022-08-04T09:57:13;30.00;99.90
16666;DHT22;8446;50.998;6.250;2022-08-04T09:59:47;30.60;99.90
16666;DHT22;8446;50.998;6.250;2022-08-04T10:02:21;30.40;99.90
16666;DHT22;8446;50.998;6.250;2022-08-04T10:04:54;30.10;99.90
16666;DHT22;8446;50.998;6.250;2022-08-04T10:07:44;30.00;99.90
16666;DHT22;8446;50.998;6.250;2022-08-04T10:10:23;29.70;99.90
16666;DHT22;8446;50.998;6.250;2022-08-04T10:13:08;29.60;99.90
16666;DHT22;8446;50.998;6.250;2022-08-04T10:15:47;29.60;99.90
16666;DHT22;8446;50.998;6.250;2022-08-04T10:18:34;29.30;99.90
16666;DHT22;8446;50.998;6.250;2022-08-04T10:21:11;29.70;99.90
16666;DHT22;8446;50.998;6.250;2022-08-04T10:23:56;30.20;99.60
16666;DHT22;8446;50.998;6.250;2022-08-04T10:26:28;30.00;99.20
16666;DHT22;8446;50.998;6.250;2022-08-04T10:29:01;30.00;99.20
16666;DHT22;8446;50.998;6.250;2022-08-04T10:31:32;29.90;98.60
16666;DHT22;8446;50.998;6.250;2022-08-04T10:34:04;29.80;98.80
16666;DHT22;8446;50.998;6.250;2022-08-04T10:36:40;29.90;98.30
16666;DHT22;8446;50.998;6.250;2022-08-04T10:39:13;29.60;98.20
16666;DHT22;8446;50.998;6.250;2022-08-04T10:41:46;29.50;98.60
16666;DHT22;8446;50.998;6.250;2022-08-04T10:44:21;29.30;98.60
16666;DHT22;8446;50.998;6.250;2022-08-04T10:46:57;29.30;99.70
16666;DHT22;8446;50.998;6.250;2022-08-04T10:49:33;29.10;99.60
16666;DHT22;8446;50.998;6.250;2022-08-04T10:52:06;29.10;99.90
16666;DHT22;8446;50.998;6.250;2022-08-04T10:54:40;29.00;99.90
16666;DHT22;8446;50.998;6.250;2022-08-04T10:57:14;28.90;99.90
16666;DHT22;8446;50.998;6.250;2022-08-04T10:59:52;28.90;99.90
16666;DHT22;8446;50.998;6.250;2022-08-04T11:02:33;28.90;99.90
16666;DHT22;8446;50.998;6.250;2022-08-04T11:05:09;28.80;99.90
16666;DHT22;8446;50.998;6.250;2022-08-04T11:07:40;28.60;99.90
16666;DHT22;8446;50.998;6.250;2022-08-04T11:10:09;28.40;99.90
16666;DHT22;8446;50.998;6.250;2022-08-04T11:12:39;28.40;99.90
16666;DHT22;8446;50.998;6.250;2022-08-04T11:15:10;28.20;99.90
16666;DHT22;8446;50.998;6.250;2022-08-04T11:17:41;28.10;99.90
16666;DHT22;8446;50.998;6.250;2022-08-04T11:20:14;28.00;99.90
16666;DHT22;8446;50.998;6.250;2022-08-04T11:22:49;28.00;99.90
16666;DHT22;8446;50.998;6.250;2022-08-04T11:25:20;28.00;99.90
16666;DHT22;8446;50.998;6.250;2022-08-04T11:27:54;28.00;99.90
16666;DHT22;8446;50.998;6.250;2022-08-04T11:30:30;28.00;99.90
16666;DHT22;8446;50.998;6.250;2022-08-04T11:33:04;28.00;99.90
16666;DHT22;8446;50.998;6.250;2022-08-04T11:35:34;27.90;99.90
16666;DHT22;8446;50.998;6.250;2022-08-04T11:38:08;28.10;99.90
16666;DHT22;8446;50.998;6.250;2022-08-04T11:40:41;28.30;99.90
16666;DHT22;8446;50.998;6.250;2022-08-04T11:43:11;28.50;99.90
16666;DHT22;8446;50.998;6.250;2022-08-04T11:45:46;28.90;99.90
16666;DHT22;8446;50.998;6.250;2022-08-04T11:48:22;29.00;99.90
16666;DHT22;8446;50.998;6.250;2022-08-04T11:50:52;28.90;99.90
16666;DHT22;8446;50.998;6.250;2022-08-04T11:53:22;28.80;99.90
16666;DHT22;8446;50.998;6.250;2022-08-04T11:55:51;28.80;99.90
16666;DHT22;8446;50.998;6.250;2022-08-04T11:58:19;29.40;99.90
16666;DHT22;8446;50.998;6.250;2022-08-04T12:01:03;29.60;99.90
16666;DHT22;8446;50.998;6.250;2022-08-04T12:03:36;30.00;99.90
16666;DHT22;8446;50.998;6.250;2022-08-04T12:06:11;30.20;99.90
16666;DHT22;8446;50.998;6.250;2022-08-04T12:09:03;29.90;99.90
16666;DHT22;8446;50.998;6.250;2022-08-04T12:11:53;29.60;99.90
16666;DHT22;8446;50.998;6.250;2022-08-04T12:14:27;30.10;99.90
16666;DHT22;8446;50.998;6.250;2022-08-04T12:16:59;29.50;99.90
16666;DHT22;8446;50.998;6.250;2022-08-04T12:19:30;29.50;99.90
16666;DHT22;8446;50.998;6.250;2022-08-04T12:22:02;29.80;99.90
16666;DHT22;8446;50.998;6.250;2022-08-04T12:24:33;30.10;99.90
16666;DHT22;8446;50.998;6.250;2022-08-04T12:27:09;29.80;99.90
16666;DHT22;8446;50.998;6.250;2022-08-04T12:29:39;29.60;99.90
16666;DHT22;8446;50.998;6.250;2022-08-04T12:32:16;29.70;99.90
16666;DHT22;8446;50.998;6.250;2022-08-04T12:34:48;29.60;99.90
16666;DHT22;8446;50.998;6.250;2022-08-04T12:37:26;30.10;99.90
16666;DHT22;8446;50.998;6.250;2022-08-04T12:40:00;30.30;99.90
16666;DHT22;8446;50.998;6.250;2022-08-04T12:42:35;30.40;99.90
16666;DHT22;8446;50.998;6.250;2022-08-04T12:45:08;29.90;99.90
16666;DHT22;8446;50.998;6.250;2022-08-04T12:47:36;29.60;99.90
16666;DHT22;8446;50.998;6.250;2022-08-04T12:50:06;29.60;99.90
16666;DHT22;8446;50.998;6.250;2022-08-04T12:52:41;29.50;99.90
16666;DHT22;8446;50.998;6.250;2022-08-04T12:55:10;29.50;99.90
16666;DHT22;8446;50.998;6.250;2022-08-04T12:57:38;29.00;99.90
16666;DHT22;8446;50.998;6.250;2022-08-04T13:00:07;28.70;99.90
16666;DHT22;8446;50.998;6.250;2022-08-04T13:02:38;28.80;99.90
16666;DHT22;8446;50.998;6.250;2022-08-04T13:05:08;28.70;99.90
16666;DHT22;8446;50.998;6.250;2022-08-04T13:07:39;28.70;99.90
16666;DHT22;8446;50.998;6.250;2022-08-04T13:10:12;28.30;99.90
16666;DHT22;8446;50.998;6.250;2022-08-04T13:12:41;28.10;99.90
16666;DHT22;8446;50.998;6.250;2022-08-04T13:15:13;27.90;99.90
16666;DHT22;8446;50.998;6.250;2022-08-04T13:17:49;28.00;99.90
16666;DHT22;8446;50.998;6.250;2022-08-04T13:20:23;28.00;99.90
16666;DHT22;8446;50.998;6.250;2022-08-04T13:22:51;27.90;99.90
16666;DHT22;8446;50.998;6.250;2022-08-04T13:25:27;27.80;99.90
16666;DHT22;8446;50.998;6.250;2022-08-04T13:27:56;27.80;99.90
16666;DHT22;8446;50.998;6.250;2022-08-04T13:30:25;27.60;99.90
16666;DHT22;8446;50.998;6.250;2022-08-04T13:32:54;27.70;99.90
16666;DHT22;8446;50.998;6.250;2022-08-04T13:35:24;27.40;99.90
16666;DHT22;8446;50.998;6.250;2022-08-04T13:37:51;27.30;99.90
16666;DHT22;8446;50.998;6.250;2022-08-04T13:40:22;27.20;99.90
16666;DHT22;8446;50.998;6.250;2022-08-04T13:42:52;27.20;99.90
16666;DHT22;8446;50.998;6.250;2022-08-04T13:45:21;27.20;99.90
16666;DHT22;8446;50.998;6.250;2022-08-04T13:47:50;27.10;99.90
16666;DHT22;8446;50.998;6.250;2022-08-04T13:50:23;27.00;99.90
16666;DHT22;8446;50.998;6.250;2022-08-04T13:52:53;27.10;99.90
16666;DHT22;8446;50.998;6.250;2022-08-04T13:55:22;27.10;99.90
16666;DHT22;8446;50.998;6.250;2022-08-04T13:57:55;27.00;99.90
16666;DHT22;8446;50.998;6.250;2022-08-04T14:00:24;27.00;99.90
16666;DHT22;8446;50.998;6.250;2022-08-04T14:02:59;26.90;99.90
16666;DHT22;8446;50.998;6.250;2022-08-04T14:05:28;26.90;99.90
16666;DHT22;8446;50.998;6.250;2022-08-04T14:08:02;26.80;99.90
16666;DHT22;8446;50.998;6.250;2022-08-04T14:10:31;26.60;99.90
16666;DHT22;8446;50.998;6.250;2022-08-04T14:13:03;26.70;99.90
16666;DHT22;8446;50.998;6.250;2022-08-04T14:15:35;26.70;99.90
16666;DHT22;8446;50.998;6.250;2022-08-04T14:18:16;26.40;99.90
16666;DHT22;8446;50.998;6.250;2022-08-04T14:21:08;26.70;99.90
16666;DHT22;8446;50.998;6.250;2022-08-04T14:23:45;26.90;99.90
16666;DHT22;8446;50.998;6.250;2022-08-04T14:26:14;26.90;99.90
16666;DHT22;8446;50.998;6.250;2022-08-04T14:28:43;26.90;99.90
16666;DHT22;8446;50.998;6.250;2022-08-04T14:31:11;27.00;99.90
16666;DHT22;8446;50.998;6.250;2022-08-04T14:33:40;27.20;99.90
16666;DHT22;8446;50.998;6.250;2022-08-04T14:36:07;27.20;99.90
16666;DHT22;8446;50.998;6.250;2022-08-04T14:38:56;27.20;99.90
16666;DHT22;8446;50.998;6.250;2022-08-04T14:41:24;27.20;99.90
16666;DHT22;8446;50.998;6.250;2022-08-04T14:43:54;27.10;99.90
16666;DHT22;8446;50.998;6.250;2022-08-04T14:46:23;27.00;99.90
16666;DHT22;8446;50.998;6.250;2022-08-04T14:49:07;27.10;99.90
16666;DHT22;8446;50.998;6.250;2022-08-04T14:51:39;27.20;99.90
16666;DHT22;8446;50.998;6.250;2022-08-04T14:54:08;27.00;99.90
16666;DHT22;8446;50.998;6.250;2022-08-04T14:56:36;27.00;99.90
16666;DHT22;8446;50.998;6.250;2022-08-04T14:59:08;27.00;99.90
16666;DHT22;8446;50.998;6.250;2022-08-04T15:01:37;26.80;99.90
16666;DHT22;8446;50.998;6.250;2022-08-04T15:04:05;26.70;99.90
16666;DHT22;8446;50.998;6.250;2022-08-04T15:06:33;26.80;99.90
16666;DHT22;8446;50.998;6.250;2022-08-04T15:09:03;26.80;99.90
16666;DHT22;8446;50.998;6.250;2022-08-04T15:11:31;26.60;99.90
16666;DHT22;8446;50.998;6.250;2022-08-04T15:13:59;26.80;99.90
16666;DHT22;8446;50.998;6.250;2022-08-04T15:16:29;26.70;99.90
16666;DHT22;8446;50.998;6.250;2022-08-04T15:18:57;26.80;99.90
16666;DHT22;8446;50.998;6.250;2022-08-04T15:21:25;27.10;99.90
16666;DHT22;8446;50.998;6.250;2022-08-04T15:23:54;26.90;99.90
16666;DHT22;8446;50.998;6.250;2022-08-04T15:26:28;26.80;99.90
16666;DHT22;8446;50.998;6.250;2022-08-04T15:28:59;26.90;99.90
16666;DHT22;8446;50.998;6.250;2022-08-04T15:31:30;27.10;99.90
16666;DHT22;8446;50.998;6.250;2022-08-04T15:34:02;27.20;99.90
16666;DHT22;8446;50.998;6.250;2022-08-04T15:36:37;27.30;99.90
16666;DHT22;8446;50.998;6.250;2022-08-04T15:39:18;27.50;99.90
16666;DHT22;8446;50.998;6.250;2022-08-04T15:41:52;27.50;99.90
16666;DHT22;8446;50.998;6.250;2022-08-04T15:44:45;27.50;99.90
16666;DHT22;8446;50.998;6.250;2022-08-04T15:47:15;27.70;99.90
16666;DHT22;8446;50.998;6.250;2022-08-04T15:49:43;27.60;99.90
16666;DHT22;8446;50.998;6.250;2022-08-04T15:52:13;27.80;99.90
16666;DHT22;8446;50.998;6.250;2022-08-04T15:54:42;27.80;99.90
16666;DHT22;8446;50.998;6.250;2022-08-04T15:57:09;27.60;99.90
16666;DHT22;8446;50.998;6.250;2022-08-04T15:59:56;27.40;99.90
16666;DHT22;8446;50.998;6.250;2022-08-04T16:02:49;27.10;99.90
16666;DHT22;8446;50.998;6.250;2022-08-04T16:05:35;27.30;99.90
16666;DHT22;8446;50.998;6.250;2022-08-04T16:08:15;27.40;99.90
16666;DHT22;8446;50.998;6.250;2022-08-04T16:10:45;27.30;99.90
16666;DHT22;8446;50.998;6.250;2022-08-04T16:13:13;27.70;99.90
16666;DHT22;8446;50.998;6.250;2022-08-04T16:15:43;28.00;99.90
16666;DHT22;8446;50.998;6.250;2022-08-04T16:18:18;28.60;99.90
16666;DHT22;8446;50.998;6.250;2022-08-04T16:20:46;29.10;99.90
16666;DHT22;8446;50.998;6.250;2022-08-04T16:23:33;28.90;99.90
16666;DHT22;8446;50.998;6.250;2022-08-04T16:26:05;29.20;99.90
16666;DHT22;8446;50.998;6.250;2022-08-04T16:28:36;29.20;99.90
16666;DHT22;8446;50.998;6.250;2022-08-04T16:31:05;29.00;99.90
16666;DHT22;8446;50.998;6.250;2022-08-04T16:33:35;29.10;99.90
16666;DHT22;8446;50.998;6.250;2022-08-04T16:36:06;29.10;99.90
16666;DHT22;8446;50.998;6.250;2022-08-04T16:38:59;28.90;99.90
16666;DHT22;8446;50.998;6.250;2022-08-04T16:41:37;29.20;99.90
16666;DHT22;8446;50.998;6.250;2022-08-04T16:44:29;29.20;99.90
16666;DHT22;8446;50.998;6.250;2022-08-04T16:46:57;29.30;99.90
16666;DHT22;8446;50.998;6.250;2022-08-04T16:49:26;29.40;99.90
16666;DHT22;8446;50.998;6.250;2022-08-04T16:51:54;29.10;99.90
16666;DHT22;8446;50.998;6.250;2022-08-04T16:54:21;29.50;99.90
16666;DHT22;8446;50.998;6.250;2022-08-04T16:56:53;28.90;99.90
16666;DHT22;8446;50.998;6.250;2022-08-04T16:59:21;28.80;99.90
16666;DHT22;8446;50.998;6.250;2022-08-04T17:01:49;28.50;99.90
16666;DHT22;8446;50.998;6.250;2022-08-04T17:04:19;28.40;99.90